Nearby METAR Reports
LFBA - Agen,(47)Lot-et-Garonne
Mise à jour: Tue, 17-Oct-2017 01:30 CEST
Claire
Claire
 Wind from ESE
Vent: ESE 22 km/h
Température: 24°C
Point de Rosée: 14°C
Humidité: 54%
Barometre: 1018 hPa
Visibilité: Supérieure à  10 km
2017/10/17 11:30 LFBA 171130Z AUTO 12012KT CAVOK 24/14 Q1018 NOSIG
LFKJ - Ajaccio,(2A)Corse-du-Sud
Mise à jour: Tue, 17-Oct-2017 01:00 CEST
Claire
Claire
 Wind from WSW
Vent: WSW 13 km/h
Température: 22°C
Point de Rosée: 16°C
Humidité: 69%
Barometre: 1024 hPa
Visibilité: Supérieure à  10 km
2017/10/17 11:00 LFKJ 171100Z 24007KT CAVOK 22/16 Q1024 NOSIG
LFLP - Annecy,(74)Haute-Savoie
Mise à jour: Tue, 17-Oct-2017 01:30 CEST
Claire
Claire
 Wind from varies
Vent: varies 4 km/h
Température: 21°C
Point de Rosée: 7°C
Humidité: 40%
Barometre: 1023 hPa
Visibilité: Supérieure à  10 km
2017/10/17 11:30 LFLP 171130Z AUTO VRB02KT CAVOK 21/07 Q1023 NOSIG
 
LFLW - Aurillac,(15)Cantal
Mise à jour: Tue, 17-Oct-2017 01:00 CEST
Claire
Claire
 Wind from SE
Vent: SE 20 km/h
Température: 19°C
Point de Rosée: 8°C
Humidité: 49%
Barometre: 1022 hPa
Visibilité: Supérieure à  10 km
2017/10/17 11:00 LFLW 171100Z AUTO 14011KT 110V170 CAVOK 19/08 Q1022 NOSIG
LFOA - Avord,(18)Cher
Mise à jour: Tue, 17-Oct-2017 01:30 CEST
Claire
Claire
 Wind from ESE
Vent: ESE 17 km/h
Température: 23°C
Point de Rosée: 13°C
Humidité: 53%
Barometre: 1019 hPa
Visibilité: Supérieure à  10 km
2017/10/17 11:30 LFOA 171130Z AUTO 12009KT 090V150 CAVOK 23/13 Q1019 NOSIG
LFSB - Bale(CH)-Mulhouse,(68)Haut-Rhin
Mise à jour: Tue, 17-Oct-2017 01:30 CEST
Claire
Claire
 Wind from SE
Vent: SE 6 km/h
Température: 21°C
Point de Rosée: 10°C
Humidité: 50%
Barometre: 1022 hPa
Visibilité: Supérieure à  10 km
2017/10/17 11:30 LFSB 171130Z 13003KT 070V200 CAVOK 21/10 Q1022 NOSIG
 
LFKB - Bastia,(2B)Haute-Corse
Mise à jour: Tue, 17-Oct-2017 01:30 CEST
Claire
Claire
 Wind from SE
Vent: SE 11 km/h
Température: 22°C
Point de Rosée: 15°C
Humidité: 65%
Barometre: 1025 hPa
Visibilité: Supérieure à  10 km
2017/10/17 11:30 LFKB 171130Z 13006KT 090V160 CAVOK 22/15 Q1025 NOSIG
LFOB - Beauvais,(60)Oise
Mise à jour: Tue, 17-Oct-2017 01:30 CEST
Nuageux
Nuageux
 Wind from ENE
Vent: ENE 6 km/h
Température: 18°C
Point de Rosée: 14°C
Humidité: 78%
Barometre: 1020 hPa
Nuage: Nuageux
Visibilité: 10 km
2017/10/17 11:30 LFOB 171130Z AUTO 06003KT 010V090 9999 FEW012 BKN026 18/14 Q1020 NOSIG
LFBE - Bergerac,(24)Dordogne
Mise à jour: Tue, 17-Oct-2017 01:30 CEST

 Wind from SE
Vent: SE 15 km/h
2017/10/17 11:30 LFBE 171130Z AUTO 13008KT 080V190 //// R27///// // ////// 23/14 Q1018
 
LFMU - Beziers, Vias,(34)Hérault
Mise à jour: Tue, 17-Oct-2017 01:30 CEST
Nuageux
Nuageux
 Wind from E
Vent: E 24 km/h
Température: 19°C
Point de Rosée: 15°C
Humidité: 78%
Barometre: 1023 hPa
Nuage: Nuageux
Visibilité: 10 km
2017/10/17 11:30 LFMU 171130Z AUTO 09013KT 9999 FEW014 SCT019 BKN025 19/15 Q1023 BECMG OVC004
LFBZ - Biarritz,(64)Pyrénées-Atlantiques
Mise à jour: Tue, 17-Oct-2017 01:30 CEST
Claire
Claire
 Wind from varies
Vent: varies 15 km/h
Température: 26°C
Point de Rosée: 12°C
Humidité: 42%
Barometre: 1016 hPa
Visibilité: Supérieure à  10 km
2017/10/17 11:30 LFBZ 171130Z AUTO VRB08KT CAVOK 26/12 Q1016 TEMPO 18015G25KT
LFBD - Bordeaux , Merignac,(33)Gironde
Mise à jour: Tue, 17-Oct-2017 01:30 CEST
Claire
Claire
 Wind from ESE
Vent: ESE 15 km/h
Température: 22°C
Point de Rosée: 16°C
Humidité: 69%
Barometre: 1017 hPa
Visibilité: Supérieure à  10 km
2017/10/17 11:30 LFBD 171130Z AUTO 11008KT 090V150 CAVOK 22/16 Q1017 NOSIG
 
LFAQ - Bray,(80)Somme
Mise à jour: Tue, 17-Oct-2017 01:30 CEST
Couvert
Couvert
 Wind from varies
Vent: varies 2 km/h
Température: 17°C
Point de Rosée: 13°C
Humidité: 77%
Barometre: 1021 hPa
Nuage: Couvert
Visibilité: 10 km
2017/10/17 11:30 LFAQ 171130Z AUTO VRB01KT 9999 SCT030 OVC041 17/13 Q1021 NOSIG
LFRB - Brest,(29)Finistère
Mise à jour: Tue, 17-Oct-2017 01:30 CEST
Légère pluie, Orageux
Légère pluie, Orageux
 Wind from ENE
Vent: ENE 11 km/h
Température: 11°C
Point de Rosée: 10°C
Humidité: 94%
Barometre: 1018 hPa
Nuage: Orageux
Visibilité: 9 km
2017/10/17 11:30 LFRB 171130Z AUTO 06006KT 9000 -RA BKN040/// OVC056/// ///TCU 11/10 Q1018 TEMPO 4000 BR BKN012
LFBU - Brie,Champniers,(16)Charente
Mise à jour: Tue, 17-Oct-2017 01:30 CEST
Claire
Claire
 Wind from SSE
Vent: SSE 19 km/h
Température: 22°C
Point de Rosée: 13°C
Humidité: 57%
Barometre: 1018 hPa
Visibilité: Supérieure à  10 km
2017/10/17 11:30 LFBU 171130Z AUTO 16010KT 130V200 CAVOK 22/13 Q1018 NOSIG
 
LFSL - Brive (19), Souillac(46),Corrèze Lot
Mise à jour: Tue, 17-Oct-2017 01:30 CEST
Claire
Claire
 Wind from SSE
Vent: SSE 20 km/h
Température: 21°C
Point de Rosée: 11°C
Humidité: 53%
Barometre: 1020 hPa
Visibilité: Supérieure à  10 km
2017/10/17 11:30 LFSL 171130Z AUTO 15011KT 110V190 CAVOK 21/11 Q1020 NOSIG
LFRK - Caen,(14)Calvados
Mise à jour: Tue, 17-Oct-2017 01:30 CEST
Claire
Claire
 Wind from E
Vent: E 9 km/h
Température: 17°C
Point de Rosée: 10°C
Humidité: 64%
Barometre: 1020 hPa
Visibilité: Supérieure à  10 km
2017/10/17 11:30 LFRK 171130Z AUTO 10005KT 040V140 CAVOK 17/10 Q1020 NOSIG
LFKC - Calvi,(2B)Haute-Corse
Mise à jour: Tue, 17-Oct-2017 01:30 CEST
Claire
Claire
 Wind from NNW
Vent: NNW 15 km/h
Température: 22°C
Point de Rosée: 15°C
Humidité: 65%
Barometre: 1024 hPa
Visibilité: Supérieure à  10 km
2017/10/17 11:30 LFKC 171130Z AUTO 33008KT 290V010 CAVOK 22/15 Q1024 NOSIG
 
LFMD - Cannes,(06)Alpes-Maritimes
Mise à jour: Tue, 17-Oct-2017 01:30 CEST
Claire
Claire
 Wind from SSE
Vent: SSE 9 km/h
Température: 21°C
Point de Rosée: 15°C
Humidité: 69%
Barometre: 1024 hPa
Visibilité: Supérieure à  10 km
2017/10/17 11:30 LFMD 171130Z AUTO 15005KT 120V190 CAVOK 21/15 Q1024 NOSIG
LFMK - Carcassonne,(11)Aude
Mise à jour: Tue, 17-Oct-2017 01:30 CEST
Couvert
Couvert
 Wind from E
Vent: E 39 km/h
Température: 19°C
Point de Rosée: 15°C
Humidité: 78%
Barometre: 1021 hPa
Nuage: Couvert
Visibilité: 10 km
2017/10/17 11:30 LFMK 171130Z AUTO 09021KT 9999 OVC015 19/15 Q1021 NOSIG
LFCK - Castre-Mazamet,(81)Tarn
Mise à jour: Tue, 17-Oct-2017 01:30 CEST
Claire
Claire
 Wind from ESE
Vent: ESE 44 km/h, Gust: 63 km/h
Température: 21°C
Point de Rosée: 13°C
Humidité: 60%
Barometre: 1021 hPa
Visibilité: Supérieure à  10 km
2017/10/17 11:30 LFCK 171130Z AUTO 12024G34KT CAVOK 21/13 Q1021 NOSIG
 
LFMV - Avignon/Caumont,(84) Vaucluse
Mise à jour: Tue, 17-Oct-2017 01:30 CEST
Claire
Claire
 Wind from W
Vent: W 11 km/h
Température: 22°C
Point de Rosée: 13°C
Humidité: 57%
Barometre: 1024 hPa
Visibilité: Supérieure à  10 km
2017/10/17 11:30 LFMV 171130Z AUTO 28006KT 200V350 CAVOK 22/13 Q1024 NOSIG
LFBC - Cazaux, (33)Gironde
Mise à jour: Tue, 17-Oct-2017 01:30 CEST
Claire
Claire
 Wind from ESE
Vent: ESE 15 km/h
Température: 24°C
Point de Rosée: 16°C
Humidité: 61%
Barometre: 1016 hPa
Visibilité: Supérieure à  10 km
2017/10/17 11:30 LFBC 171130Z AUTO 12008KT 100V160 CAVOK 24/16 Q1016 NOSIG
LFOK - Chalon,Vatry,(51)Marne
Mise à jour: Tue, 17-Oct-2017 01:30 CEST
Claire
Claire
 Wind from varies
Vent: varies 4 km/h
Température: 21°C
Point de Rosée: 15°C
Humidité: 69%
Barometre: 1020 hPa
Visibilité: Supérieure à  10 km
2017/10/17 11:30 LFOK 171130Z AUTO VRB02KT CAVOK 21/15 Q1020 NOSIG
 
LFLB - Chambery,Aix Bai,(73)Savoie
Mise à jour: Tue, 17-Oct-2017 01:30 CEST
Claire
Claire
 Wind from varies
Vent: varies 4 km/h
Température: 19°C
Point de Rosée: 6°C
Humidité: 43%
Barometre: 1023 hPa
Visibilité: Supérieure à  10 km
2017/10/17 11:30 LFLB 171130Z AUTO VRB02KT CAVOK 19/06 Q1023 NOSIG
LFOC - Chateaudun,(28)Eure-et-Loir
Mise à jour: Tue, 17-Oct-2017 01:30 CEST
Claire
Claire
 Wind from varies
Vent: varies 4 km/h
Température: 21°C
Point de Rosée: 14°C
Humidité: 64%
Barometre: 1019 hPa
Visibilité: Supérieure à  10 km
2017/10/17 11:30 LFOC 171130Z AUTO VRB02KT CAVOK 21/14 Q1019 NOSIG
LFLX - Chateauroux,(36)Indre
Mise à jour: Tue, 17-Oct-2017 01:30 CEST
Claire
Claire
 Wind from E
Vent: E 17 km/h
Température: 25°C
Point de Rosée: 9°C
Humidité: 36%
Barometre: 1018 hPa
Visibilité: Supérieure à  10 km
2017/10/17 11:30 LFLX 171130Z AUTO 09009KT 050V120 CAVOK 25/09 Q1018 NOSIG
 
LFRC - Cherbourg , Maupertus,(50)Manche
Mise à jour: Tue, 17-Oct-2017 01:30 CEST
Quelques nuages
Quelques nuages
 Wind from ESE
Vent: ESE 7 km/h
Température: 15°C
Point de Rosée: 10°C
Humidité: 72%
Barometre: 1020 hPa
Nuage: Quelques nuages
Visibilité: 10 km
2017/10/17 11:30 LFRC 171130Z AUTO 12004KT 060V150 9999 FEW017 15/10 Q1020 NOSIG
LFLC - Clermont-Ferrand,(63)Puy-de-Dôme
Mise à jour: Tue, 17-Oct-2017 01:30 CEST
Claire
Claire
 Wind from SSE
Vent: SSE 24 km/h
Température: 24°C
Point de Rosée: 1°C
Humidité: 22%
Barometre: 1020 hPa
Visibilité: Supérieure à  10 km
2017/10/17 11:30 LFLC 171130Z AUTO 16013KT CAVOK 24/01 Q1020 NOSIG
LFBG - Cognac,(16)Charente
Mise à jour: Tue, 17-Oct-2017 01:30 CEST
Claire
Claire
 Wind from SSE
Vent: SSE 22 km/h
Température: 22°C
Point de Rosée: 14°C
Humidité: 61%
Barometre: 1017 hPa
Visibilité: Supérieure à  10 km
2017/10/17 11:30 LFBG 171130Z AUTO 15012KT CAVOK 22/14 Q1017 NOSIG
 
LFGA - Colmar,(68)Haut-Rhin
Mise à jour: Tue, 17-Oct-2017 01:30 CEST
Claire
Claire
 Wind from varies
Vent: varies 4 km/h
Température: 22°C
Point de Rosée: 7°C
Humidité: 38%
Barometre: 1022 hPa
Visibilité: Supérieure à  10 km
2017/10/17 11:30 LFGA 171130Z AUTO VRB02KT CAVOK 22/07 Q1022
LFPT - Cormeilles Vexin,(95)Val-d Oise
Mise à jour: Tue, 17-Oct-2017 01:30 CEST
Claire
Claire
 Wind from ENE
Vent: ENE 9 km/h
Température: 18°C
Point de Rosée: 14°C
Humidité: 78%
Barometre: 1020 hPa
Visibilité: Supérieure à  10 km
2017/10/17 11:30 LFPT 171130Z AUTO 07005KT 040V100 CAVOK 18/14 Q1020
LFPC - Creil Fafb,(60)Oise
Mise à jour: Thu, 01-Sep-2016 05:00 CEST
Pas Actualisé
Claire
Claire
 Wind from WNW
Vent: WNW 7 km/h
Température: 24°C
Point de Rosée: 13°C
Humidité: 50%
Barometre: 1023 hPa
Visibilité: Supérieure à  10 km
2016/09/01 15:00 LFPC 011500Z AUTO 30004KT 240V350 CAVOK 24/13 Q1023
 
LFBY - Dax,(40)Landes
Mise à jour: Tue, 17-Oct-2017 12:58 CEST
Nuageux
Nuageux
 Wind from ESE
Vent: ESE 7 km/h
Température: 21°C
Point de Rosée: 16°C
Humidité: 73%
Barometre: 1017 hPa
Nuage: Nuageux
Visibilité: 7 km
2017/10/17 10:58 LFBY 171058Z 11004KT 050V140 7000 FEW008 BKN210 21/16 Q1017 RMK B2
LFRG - Deauville/Saint-Gatien,(14)Calvados
Mise à jour: Tue, 17-Oct-2017 01:30 CEST
Claire
Claire
 Wind from SE
Vent: SE 6 km/h
Température: 17°C
Point de Rosée: 11°C
Humidité: 68%
Barometre: 1020 hPa
Visibilité: Supérieure à  10 km
2017/10/17 11:30 LFRG 171130Z AUTO 14003KT 080V230 CAVOK 17/11 Q1020 NOSIG
LFSD - Dijon,(31)Côte-d Or
Mise à jour: Tue, 17-Oct-2017 01:30 CEST
Claire
Claire
 Wind from SSE
Vent: SSE 13 km/h
Température: 20°C
Point de Rosée: 11°C
Humidité: 56%
Barometre: 1022 hPa
Visibilité: Supérieure à  10 km
2017/10/17 11:30 LFSD 171130Z AUTO 16007KT 130V190 CAVOK 20/11 Q1022
 
LFRD - Dinard,(35)Ille-et-Vilaine
Mise à jour: Tue, 17-Oct-2017 01:30 CEST

 Wind from E
Vent: E 19 km/h
2017/10/17 11:30 LFRD 171130Z AUTO 08010KT //// R35L///// // ////// 16/11 Q1019
LFGJ - Dole-Tavaux,(39) Jura
Mise à jour: Tue, 17-Oct-2017 01:30 CEST
Claire
Claire
 Wind from SSW
Vent: SSW 7 km/h
Température: 21°C
Point de Rosée: 11°C
Humidité: 53%
Barometre: 1022 hPa
Visibilité: Supérieure à  10 km
2017/10/17 11:30 LFGJ 171130Z AUTO 21004KT 170V240 CAVOK 21/11 Q1022 NOSIG
FMCZ - Dzaoudzi-Pamandzi,(976)Mayotte
Mise à jour: Tue, 17-Oct-2017 01:30 CEST
Quelques nuages
Quelques nuages
 Wind from NE
Vent: NE 19 km/h
Température: 31°C
Humidex: 36°C
Point de Rosée: 23°C
Humidité: 62%
Barometre: 1011 hPa
Nuage: Quelques nuages
Visibilité: 10 km
2017/10/17 11:30 FMCZ 171130Z 05010KT 9999 FEW023 31/23 Q1011 NOSIG
 
LFOE - Evreux,(27)Eure
Mise à jour: Tue, 17-Oct-2017 01:30 CEST
Couvert
Couvert
 Wind from NE
Vent: NE 11 km/h
Température: 17°C
Point de Rosée: 12°C
Humidité: 73%
Barometre: 1020 hPa
Nuage: Couvert
Visibilité: 10 km
2017/10/17 11:30 LFOE 171130Z AUTO 04006KT 9999 OVC017 17/12 Q1020
LFSG - EPINAL Mirecourt,(88)Vosges
Mise à jour: Tue, 17-Oct-2017 01:30 CEST
Claire
Claire
 Wind from S
Vent: S 17 km/h
Température: 19°C
Point de Rosée: 10°C
Humidité: 56%
Barometre: 1022 hPa
Visibilité: Supérieure à  10 km
2017/10/17 11:30 LFSG 171130Z AUTO 19009KT CAVOK 19/10 Q1022
LFKF - Figari,(2A)Corse-du-Sud
Mise à jour: Tue, 17-Oct-2017 01:30 CEST
Claire
Claire
 Wind from E
Vent: E 15 km/h
Température: 25°C
Point de Rosée: 13°C
Humidité: 47%
Barometre: 1024 hPa
Visibilité: Supérieure à  10 km
2017/10/17 11:30 LFKF 171130Z AUTO 08008KT 040V120 CAVOK 25/13 Q1024 NOSIG
 
LFLS - Grenoble , St. Geoirs,(38)Isère
Mise à jour: Tue, 17-Oct-2017 01:30 CEST
Claire
Claire
 Wind from varies
Vent: varies 6 km/h
Température: 22°C
Point de Rosée: 8°C
Humidité: 41%
Barometre: 1023 hPa
Visibilité: Supérieure à  10 km
2017/10/17 11:30 LFLS 171130Z AUTO VRB03KT CAVOK 22/08 Q1023 NOSIG
LFTH - Hyeres,(83)Var
Mise à jour: Tue, 17-Oct-2017 01:30 CEST
Claire
Claire
 Wind from SE
Vent: SE 13 km/h
Température: 21°C
Point de Rosée: 15°C
Humidité: 69%
Barometre: 1024 hPa
Visibilité: Supérieure à  10 km
2017/10/17 11:30 LFTH 171130Z AUTO 14007KT 120V190 CAVOK 21/15 Q1024 NOSIG
LFMI - Istres,(13)Bouches-du-Rhône
Mise à jour: Tue, 17-Oct-2017 01:30 CEST
Claire
Claire
 Wind from S
Vent: S 13 km/h
Température: 22°C
Point de Rosée: 14°C
Humidité: 61%
Barometre: 1024 hPa
Visibilité: Supérieure à  10 km
2017/10/17 11:30 LFMI 171130Z AUTO 17007KT 110V210 CAVOK 22/14 Q1024 NOSIG
 
LFOH - La Heve,(76)Seine-Maritime
Mise à jour: Tue, 17-Oct-2017 01:30 CEST
Claire
Claire
 Wind from ENE
Vent: ENE 9 km/h
Température: 16°C
Point de Rosée: 10°C
Humidité: 68%
Barometre: 1020 hPa
Visibilité: Supérieure à  10 km
2017/10/17 11:30 LFOH 171130Z AUTO 06005KT 020V130 CAVOK 16/10 Q1020 NOSIG
LFRI - La Roche-Sur-Yon,(85)Vendée
Mise à jour: Tue, 17-Oct-2017 01:30 CEST
Partiellement nuageux
Partiellement nuageux
 Wind from SSE
Vent: SSE 20 km/h
Température: 22°C
Point de Rosée: 15°C
Humidité: 65%
Barometre: 1016 hPa
Nuage: Partiellement nuageux
Visibilité: 10 km
2017/10/17 11:30 LFRI 171130Z AUTO 16011KT 9999 // NSC 22/15 Q1016
LFBH - La Rochelle,(17)Charente-Maritime
Mise à jour: Tue, 17-Oct-2017 01:30 CEST
Claire
Claire
 Wind from SSE
Vent: SSE 17 km/h
Température: 22°C
Point de Rosée: 15°C
Humidité: 65%
Barometre: 1016 hPa
Visibilité: Supérieure à  10 km
2017/10/17 11:30 LFBH 171130Z AUTO 16009KT CAVOK 22/15 Q1016 NOSIG
 
LFOV - Laval,Entrammes,(53)Mayenne
Mise à jour: Tue, 17-Oct-2017 01:30 CEST
Claire
Claire
 Wind from E
Vent: E 15 km/h
Température: 18°C
Point de Rosée: 14°C
Humidité: 78%
Barometre: 1018 hPa
Visibilité: Supérieure à  10 km
2017/10/17 11:30 LFOV 171130Z AUTO 09008KT CAVOK 18/14 Q1018
LFRJ - Landivisiau,(29)Finistère
Mise à jour: Tue, 17-Oct-2017 01:30 CEST
Légère pluie, Orageux
Légère pluie, Orageux
 Wind from NE
Vent: NE 9 km/h
Température: 12°C
Point de Rosée: 10°C
Humidité: 88%
Barometre: 1018 hPa
Nuage: Orageux
Visibilité: 10 km
2017/10/17 11:30 LFRJ 171130Z AUTO 05005KT 9999 -RA OVC039/// ///TCU 12/10 Q1018 TEMPO RA
LFRO - Lannion,Servel,(22)Côtes-d Armor
Mise à jour: Tue, 17-Oct-2017 01:30 CEST
Couvert
Couvert
 Wind from varies
Vent: varies 4 km/h
Température: 13°C
Point de Rosée: 11°C
Humidité: 88%
Barometre: 1019 hPa
Nuage: Couvert
Visibilité: 10 km
2017/10/17 11:30 LFRO 171130Z AUTO VRB02KT 9999 OVC041 13/11 Q1019 TEMPO 4000 BR BKN014
 
LFRL - Lanveoc Poulmic,(29)Finistère
Mise à jour: Tue, 17-Oct-2017 01:30 CEST
Légère pluie, Couvert
Légère pluie, Couvert
 Wind from ENE
Vent: ENE 9 km/h
Température: 12°C
Point de Rosée: 10°C
Humidité: 88%
Barometre: 1018 hPa
Nuage: Couvert
Visibilité: 10 km
2017/10/17 11:30 LFRL 171130Z AUTO 06005KT 9999 -RA OVC039 12/10 Q1018 BECMG BKN041TCU OVC054
TFFF - Le Lamentin,(972)Martinique
Mise à jour: Tue, 17-Oct-2017 01:30 CEST
Légère pluie, Orageux
Légère pluie, Orageux
 Wind from ENE
Vent: ENE 6 km/h
Température: 24°C
Point de Rosée: 24°C
Humidité: 100%
Barometre: 1016 hPa
Nuage: Orageux
Visibilité: 10 km
2017/10/17 11:30 TFFF 171130Z AUTO 06003KT 9999 -RA FEW047/// SCT078/// OVC092/// ///TCU 24/24 Q1016 TEMPO 3000 SHRA SCT010 BKN015CB
LFMC - Le Luc,(83)Var
Mise à jour: Tue, 17-Oct-2017 01:00 CEST
Claire
Claire
 Wind from varies
Vent: varies 4 km/h
Température: 23°C
Point de Rosée: 12°C
Humidité: 50%
Barometre: 1025 hPa
Visibilité: Supérieure à  10 km
2017/10/17 11:00 LFMC 171100Z VRB02KT CAVOK 23/12 Q1025
 
LFRM - Le Mans,(72)Sarthe
Mise à jour: Tue, 17-Oct-2017 01:30 CEST
Claire
Claire
 Wind from varies
Vent: varies 4 km/h
Température: 20°C
Point de Rosée: 15°C
Humidité: 73%
Barometre: 1019 hPa
Visibilité: Supérieure à  10 km
2017/10/17 11:30 LFRM 171130Z AUTO VRB02KT CAVOK 20/15 Q1019 NOSIG
LFAT - Le Touquet,(62)Pas-de-Calais
Mise à jour: Tue, 17-Oct-2017 01:30 CEST
Quelques nuages
Quelques nuages
 Wind from SW
Vent: SW 7 km/h
Température: 16°C
Point de Rosée: 12°C
Humidité: 77%
Barometre: 1021 hPa
Nuage: Quelques nuages
Visibilité: 10 km
2017/10/17 11:30 LFAT 171130Z AUTO 22004KT 190V250 9999 FEW024 16/12 Q1021 NOSIG
LFQQ - Lille,(59)Nord
Mise à jour: Tue, 17-Oct-2017 01:30 CEST
Claire
Claire
 Wind from SW
Vent: SW 6 km/h
Température: 17°C
Point de Rosée: 11°C
Humidité: 68%
Barometre: 1021 hPa
Visibilité: Supérieure à  10 km
2017/10/17 11:30 LFQQ 171130Z AUTO 23003KT 200V270 CAVOK 17/11 Q1021 NOSIG
 
LFRH - Lorient/Lann Bih,(56)Morbihan
Mise à jour: Tue, 17-Oct-2017 01:30 CEST
Nuageux
Nuageux
 Wind from ENE
Vent: ENE 20 km/h
Température: 16°C
Point de Rosée: 13°C
Humidité: 83%
Barometre: 1016 hPa
Nuage: Nuageux
Visibilité: 10 km
2017/10/17 11:30 LFRH 171130Z AUTO 07011KT 9999 SCT020 BKN130 BKN210 16/13 Q1016 TEMPO SCT040TCU
LFBL - Limoges,(87)Haute-Vienne
Mise à jour: Tue, 17-Oct-2017 01:30 CEST
Claire
Claire
 Wind from SE
Vent: SE 20 km/h
Température: 20°C
Point de Rosée: 11°C
Humidité: 56%
Barometre: 1020 hPa
Visibilité: Supérieure à  10 km
2017/10/17 11:30 LFBL 171130Z AUTO 14011KT CAVOK 20/11 Q1020 NOSIG
LFSX - Luxeuil-les-Bains,(70)Haute-Saône
Mise à jour: Tue, 17-Oct-2017 01:30 CEST
Claire
Claire
 Wind from varies
Vent: varies 6 km/h
Température: 22°C
Point de Rosée: 7°C
Humidité: 38%
Barometre: 1022 hPa
Visibilité: Supérieure à  10 km
2017/10/17 11:30 LFSX 171130Z AUTO VRB03KT CAVOK 22/07 Q1022 NOSIG
 
LFLY - Lyon,Bron,(69) Rhône
Mise à jour: Tue, 17-Oct-2017 01:30 CEST
Claire
Claire
 Wind from S
Vent: S 15 km/h
Température: 23°C
Point de Rosée: 10°C
Humidité: 44%
Barometre: 1022 hPa
Visibilité: Supérieure à  10 km
2017/10/17 11:30 LFLY 171130Z AUTO 19008KT 160V250 CAVOK 23/10 Q1022 NOSIG
LFLL - Lyon,Satolas,(69) Rhône
Mise à jour: Tue, 17-Oct-2017 01:30 CEST
Claire
Claire
 Wind from S
Vent: S 19 km/h
Température: 23°C
Point de Rosée: 8°C
Humidité: 38%
Barometre: 1022 hPa
Visibilité: Supérieure à  10 km
2017/10/17 11:30 LFLL 171130Z 17010KT 140V200 CAVOK 23/08 Q1022 NOSIG
LFJR - Marcé,(49) Maine-et-Loire
Mise à jour: Tue, 17-Oct-2017 01:30 CEST
Claire
Claire
 Wind from ESE
Vent: ESE 13 km/h
Température: 20°C
Point de Rosée: 15°C
Humidité: 73%
Barometre: 1018 hPa
Visibilité: Supérieure à  10 km
2017/10/17 11:30 LFJR 171130Z AUTO 11007KT 070V140 CAVOK 20/15 Q1018 NOSIG
 
LFML - Marseille, Marignane,(13)Bouches-du-Rhône
Mise à jour: Tue, 17-Oct-2017 01:30 CEST
Claire
Claire
 Wind from SSE
Vent: SSE 9 km/h
Température: 23°C
Point de Rosée: 12°C
Humidité: 50%
Barometre: 1024 hPa
Visibilité: Supérieure à  10 km
2017/10/17 11:30 LFML 171130Z AUTO 16005KT 110V210 CAVOK 23/12 Q1024 NOSIG
SOCA - Matury,(973)Guyane
Mise à jour: Tue, 17-Oct-2017 01:30 CEST
Quelques nuages
Quelques nuages
 Wind from varies
Vent: varies 4 km/h
Température: 28°C
Humidex: 32°C
Point de Rosée: 25°C
Humidité: 84%
Barometre: 1014 hPa
Nuage: Quelques nuages
Visibilité: 10 km
2017/10/17 11:30 SOCA 171130Z AUTO VRB02KT 9999 FEW011 28/25 Q1014 BECMG 07012KT
LFPM - Melun,(77)Seine-et-Marne
Mise à jour: Tue, 17-Oct-2017 01:30 CEST
Claire
Claire
 Wind from SE
Vent: SE 6 km/h
Température: 21°C
Point de Rosée: 17°C
Humidité: 78%
Barometre: 1020 hPa
Visibilité: Supérieure à  10 km
2017/10/17 11:30 LFPM 171130Z AUTO 13003KT 090V190 CAVOK 21/17 Q1020
 
LFJL - Metz-Nancy-Lorraine,(57)Moselle
Mise à jour: Tue, 17-Oct-2017 01:30 CEST
Claire
Claire
 Wind from SSE
Vent: SSE 11 km/h
Température: 20°C
Point de Rosée: 13°C
Humidité: 64%
Barometre: 1022 hPa
Visibilité: Supérieure à  10 km
2017/10/17 11:30 LFJL 171130Z AUTO 15006KT 110V180 CAVOK 20/13 Q1022 NOSIG
LFBM - Mont-De-Marsan,(40)Landes
Mise à jour: Tue, 17-Oct-2017 01:30 CEST

 Wind from ESE
Vent: ESE 9 km/h
Température: 24°C
Point de Rosée: 15°C
Humidité: 57%
Barometre: 1017 hPa
Visibilité: 10 km
2017/10/17 11:30 LFBM 171130Z AUTO 12005KT 070V170 9999 ////// 24/15 Q1017
LFMT - Montpellier,(34)Hérault
Mise à jour: Tue, 17-Oct-2017 01:30 CEST
Partiellement nuageux
Partiellement nuageux
 Wind from ENE
Vent: ENE 11 km/h
Température: 20°C
Point de Rosée: 14°C
Humidité: 69%
Barometre: 1024 hPa
Nuage: Partiellement nuageux
Visibilité: 9 km
2017/10/17 11:30 LFMT 171130Z AUTO 07006KT 9000 SCT031 20/14 Q1024 TEMPO 16012KT BECMG BKN004
 
LFRU - Morlaix Ploujean,(29)Finistère
Mise à jour: Tue, 17-Oct-2017 01:30 CEST
Légère pluie, Nuageux
Légère pluie, Nuageux
 Wind from ENE
Vent: ENE 15 km/h
Température: 12°C
Point de Rosée: 10°C
Humidité: 88%
Barometre: 1018 hPa
Nuage: Nuageux
Visibilité: 10 km
2017/10/17 11:30 LFRU 171130Z AUTO 07008KT 040V100 9999 -RA FEW040 BKN054 BKN064 12/10 Q1018
LFSN - Nancy,Essey,(54)Meurthe-et-Moselle
Mise à jour: Tue, 17-Oct-2017 01:30 CEST
Claire
Claire
 Wind from S
Vent: S 11 km/h
Température: 21°C
Point de Rosée: 11°C
Humidité: 53%
Barometre: 1022 hPa
Visibilité: Supérieure à  10 km
2017/10/17 11:30 LFSN 171130Z AUTO 17006KT 130V210 CAVOK 21/11 Q1022
LFSO - Nancy , Ochey,(54)Meurthe-et-Moselle
Mise à jour: Tue, 17-Oct-2017 01:30 CEST
Claire
Claire
 Wind from SE
Vent: SE 9 km/h
Température: 21°C
Point de Rosée: 12°C
Humidité: 57%
Barometre: 1022 hPa
Visibilité: Supérieure à  10 km
2017/10/17 11:30 LFSO 171130Z AUTO 14005KT 100V170 CAVOK 21/12 Q1022 NOSIG
 
LFRS - Nantes,(44)Loire-Atlantique
Mise à jour: Tue, 17-Oct-2017 01:30 CEST
Claire
Claire
 Wind from ESE
Vent: ESE 15 km/h
Température: 20°C
Point de Rosée: 16°C
Humidité: 78%
Barometre: 1016 hPa
Visibilité: Supérieure à  10 km
2017/10/17 11:30 LFRS 171130Z AUTO 12008KT CAVOK 20/16 Q1016 NOSIG
LFQG - Nevers,Fourchamb,(58)Nièvre
Mise à jour: Tue, 17-Oct-2017 01:00 CEST
Claire
Claire
 Wind from SE
Vent: SE 17 km/h
Température: 22°C
Point de Rosée: 13°C
Humidité: 57%
Barometre: 1020 hPa
Visibilité: Supérieure à  10 km
2017/10/17 11:00 LFQG 171100Z AUTO 13009KT CAVOK 22/13 Q1020
LFMN - Nice,(06)Alpes-Maritimes
Mise à jour: Tue, 17-Oct-2017 01:30 CEST
Claire
Claire
 Wind from SE
Vent: SE 7 km/h
Température: 20°C
Point de Rosée: 13°C
Humidité: 64%
Barometre: 1025 hPa
Visibilité: Supérieure à  10 km
2017/10/17 11:30 LFMN 171130Z 13004KT CAVOK 20/13 Q1025 NOSIG
 
LFTW - Nimes, Garons,(30) Gard
Mise à jour: Tue, 17-Oct-2017 01:30 CEST
Nuageux
Nuageux
 Wind from S
Vent: S 11 km/h
Température: 20°C
Point de Rosée: 13°C
Humidité: 64%
Barometre: 1024 hPa
Nuage: Nuageux
Visibilité: 10 km
2017/10/17 11:30 LFTW 171130Z AUTO 18006KT 130V240 9999 BKN023 BKN029 20/13 Q1024 BECMG OVC002
LFMO - Orange,(84)Vaucluse
Mise à jour: Tue, 17-Oct-2017 01:30 CEST
Partiellement nuageux
Partiellement nuageux
 Wind from varies
Vent: varies 2 km/h
Température: 19°C
Point de Rosée: 13°C
Humidité: 68%
Barometre: 1024 hPa
Nuage: Partiellement nuageux
Visibilité: 9 km
2017/10/17 11:30 LFMO 171130Z AUTO VRB01KT 9000 NSC 19/13 Q1024 NOSIG
LFOJ - Orleans,(45)Loiret
Mise à jour: Tue, 17-Oct-2017 01:30 CEST
Claire
Claire
 Wind from W
Vent: W 6 km/h
Température: 21°C
Point de Rosée: 14°C
Humidité: 64%
Barometre: 1019 hPa
Visibilité: Supérieure à  10 km
2017/10/17 11:30 LFOJ 171130Z AUTO 28003KT 220V320 CAVOK 21/14 Q1019 BECMG 11010KT BKN010
 
LFPB - Paris ,Le Bourget,(93)Seine-Saint-Denis
Mise à jour: Tue, 17-Oct-2017 01:30 CEST
Claire
Claire
 Wind from E
Vent: E 7 km/h
Température: 20°C
Point de Rosée: 16°C
Humidité: 78%
Barometre: 1020 hPa
Visibilité: Supérieure à  10 km
2017/10/17 11:30 LFPB 171130Z AUTO 08004KT 040V120 CAVOK 20/16 Q1020 NOSIG
LFPG - Paris, Charles De Gaulle,(95)Val-d Oise
Mise à jour: Tue, 17-Oct-2017 01:30 CEST
Claire
Claire
 Wind from E
Vent: E 11 km/h
Température: 20°C
Point de Rosée: 15°C
Humidité: 73%
Barometre: 1020 hPa
Visibilité: Supérieure à  10 km
2017/10/17 11:30 LFPG 171130Z 09006KT 060V120 CAVOK 20/15 Q1020 NOSIG
LFPO - Paris-Orly,(94)Val-de-Marne
Mise à jour: Tue, 17-Oct-2017 01:30 CEST
Claire
Claire
 Wind from ENE
Vent: ENE 7 km/h
Température: 20°C
Point de Rosée: 15°C
Humidité: 73%
Barometre: 1020 hPa
Visibilité: Supérieure à  10 km
2017/10/17 11:30 LFPO 171130Z 07004KT 040V130 CAVOK 20/15 Q1020 NOSIG
 
LFBP - Pau,(64)Pyrénées-Atlantiques
Mise à jour: Tue, 17-Oct-2017 01:30 CEST
Claire
Claire
 Wind from NE
Vent: NE 6 km/h
Température: 26°C
Point de Rosée: 15°C
Humidité: 51%
Barometre: 1017 hPa
Visibilité: Supérieure à  10 km
2017/10/17 11:30 LFBP 171130Z AUTO 04003KT 340V140 CAVOK 26/15 Q1017 NOSIG
LFMP - Perpignan,(66)Pyrénées-Orientales
Mise à jour: Tue, 17-Oct-2017 01:30 CEST
Claire
Claire
 Wind from ESE
Vent: ESE 26 km/h
Température: 22°C
Point de Rosée: 16°C
Humidité: 69%
Barometre: 1021 hPa
Visibilité: Supérieure à  10 km
2017/10/17 11:30 LFMP 171130Z AUTO 12014KT 090V150 CAVOK 22/16 Q1021 TEMPO 14020G30KT
LFBI - Poitiers,(86)Vienne
Mise à jour: Tue, 17-Oct-2017 01:30 CEST
Claire
Claire
 Wind from SSE
Vent: SSE 17 km/h
Température: 23°C
Point de Rosée: 13°C
Humidité: 53%
Barometre: 1018 hPa
Visibilité: Supérieure à  10 km
2017/10/17 11:30 LFBI 171130Z AUTO 16009KT 130V190 CAVOK 23/13 Q1018 NOSIG
 
LFBP - Pont-Long-Uzein,(64)Pyrénées-Atlantiques
Mise à jour: Tue, 17-Oct-2017 01:30 CEST
Claire
Claire
 Wind from NE
Vent: NE 6 km/h
Température: 26°C
Point de Rosée: 15°C
Humidité: 51%
Barometre: 1017 hPa
Visibilité: Supérieure à  10 km
2017/10/17 11:30 LFBP 171130Z AUTO 04003KT 340V140 CAVOK 26/15 Q1017 NOSIG
TFFR - Point à Pitre,(971)Guadeloupe
Mise à jour: Tue, 17-Oct-2017 01:30 CEST
Orageux
Orageux
 Wind from varies
Vent: varies 4 km/h
Température: 27°C
Humidex: 31°C
Point de Rosée: 24°C
Humidité: 84%
Barometre: 1015 hPa
Nuage: Orageux
Visibilité: 10 km
2017/10/17 11:30 TFFR 171130Z AUTO VRB02KT 9999 FEW022/// SCT031/// ///CB 27/24 Q1015 TEMPO 3000 SHRA
LFRQ - Quimper,(29)Finistère
Mise à jour: Tue, 17-Oct-2017 01:30 CEST
Couvert
Couvert
 Wind from NNE
Vent: NNE 13 km/h
Température: 13°C
Point de Rosée: 11°C
Humidité: 88%
Barometre: 1017 hPa
Nuage: Couvert
Visibilité: 10 km
2017/10/17 11:30 LFRQ 171130Z AUTO 03007KT 9999 BKN025 OVC030 13/11 Q1017 TEMPO 4000 BR BKN012
 
LFQA - Reims,Prunay,(51)Marne
Mise à jour: Tue, 17-Oct-2017 01:30 CEST
Claire
Claire
 Wind from ESE
Vent: ESE 9 km/h
Température: 20°C
Point de Rosée: 15°C
Humidité: 73%
Barometre: 1021 hPa
Visibilité: Supérieure à  10 km
2017/10/17 11:30 LFQA 171130Z AUTO 12005KT CAVOK 20/15 Q1021
LFRN - Rennes,(35)Ille-et-Vilaine
Mise à jour: Tue, 17-Oct-2017 01:30 CEST
Claire
Claire
 Wind from E
Vent: E 13 km/h
Température: 18°C
Point de Rosée: 13°C
Humidité: 73%
Barometre: 1018 hPa
Visibilité: Supérieure à  10 km
2017/10/17 11:30 LFRN 171130Z AUTO 10007KT 030V160 CAVOK 18/13 Q1018 NOSIG
LFCR - Rodez,(12)Aveyron
Mise à jour: Tue, 17-Oct-2017 01:30 CEST
Claire
Claire
 Wind from SE
Vent: SE 26 km/h
Température: 20°C
Point de Rosée: 9°C
Humidité: 49%
Barometre: 1021 hPa
Visibilité: Supérieure à  10 km
2017/10/17 11:30 LFCR 171130Z AUTO 13014KT CAVOK 20/09 Q1021 TEMPO 14015G25KT
 
LFYR - Romorantin,(41)Loir-et-Cher
Mise à jour: Tue, 17-Oct-2017 01:30 CEST
Claire
Claire
 Wind from E
Vent: E 7 km/h
Température: 24°C
Point de Rosée: 14°C
Humidité: 54%
Barometre: 1018 hPa
Visibilité: Supérieure à  10 km
2017/10/17 11:30 LFYR 171130Z AUTO 09004KT 030V140 CAVOK 24/14 Q1018 NOSIG
LFOP - Rouen,(76)Seine-Maritime
Mise à jour: Tue, 17-Oct-2017 01:30 CEST
Quelques nuages
Quelques nuages
 Wind from E
Vent: E 11 km/h
Température: 17°C
Point de Rosée: 10°C
Humidité: 64%
Barometre: 1020 hPa
Nuage: Quelques nuages
Visibilité: 10 km
2017/10/17 11:30 LFOP 171130Z AUTO 09006KT 9999 // FEW025 17/10 Q1020
LFRT - Saint-Brieuc,(22)Côtes-d Armor
Mise à jour: Tue, 17-Oct-2017 01:30 CEST
Couvert
Couvert
 Wind from ENE
Vent: ENE 15 km/h
Température: 14°C
Point de Rosée: 12°C
Humidité: 88%
Barometre: 1018 hPa
Nuage: Couvert
Visibilité: 10 km
2017/10/17 11:30 LFRT 171130Z AUTO 07008KT 9999 BKN032 BKN096 OVC120 14/12 Q1018
 
FMEE - Saint-Denis,(974)Réunion
Mise à jour: Tue, 17-Oct-2017 01:00 CEST
Partiellement nuageux
Partiellement nuageux
 Wind from ENE
Vent: ENE 20 km/h
Température: 28°C
Humidex: 30°C
Point de Rosée: 21°C
Humidité: 66%
Barometre: 1015 hPa
Nuage: Partiellement nuageux
Visibilité: 10 km
2017/10/17 11:00 FMEE 171100Z 07011KT 9999 FEW026 SCT066 28/21 Q1015 NOSIG
LFLN - Saint-Yan,(71)Saône-et-Loire
Mise à jour: Tue, 17-Oct-2017 01:30 CEST
Claire
Claire
 Wind from varies
Vent: varies 4 km/h
Température: 23°C
Point de Rosée: 9°C
Humidité: 41%
Barometre: 1020 hPa
Visibilité: Supérieure à  10 km
2017/10/17 11:30 LFLN 171130Z AUTO VRB02KT CAVOK 23/09 Q1020 NOSIG
LFMY - Salon-de-Provence,(13)Bouches-du-Rhône
Mise à jour: Tue, 17-Oct-2017 01:30 CEST
Claire
Claire
 Wind from SSW
Vent: SSW 13 km/h
Température: 21°C
Point de Rosée: 14°C
Humidité: 64%
Barometre: 1024 hPa
Visibilité: Supérieure à  10 km
2017/10/17 11:30 LFMY 171130Z AUTO 21007KT 170V260 CAVOK 21/14 Q1024 NOSIG
 
LFKS - Solenzara,(2A)Corse-du-Sud
Mise à jour: Tue, 17-Oct-2017 01:30 CEST
Claire
Claire
 Wind from SE
Vent: SE 9 km/h
Température: 22°C
Point de Rosée: 14°C
Humidité: 61%
Barometre: 1024 hPa
Visibilité: Supérieure à  10 km
2017/10/17 11:30 LFKS 171130Z AUTO 13005KT 090V170 CAVOK 22/14 Q1024
LFSI - St-Dizier,(52)Haute-Marne
Mise à jour: Tue, 17-Oct-2017 01:30 CEST
Claire
Claire
 Wind from SSE
Vent: SSE 11 km/h
Température: 23°C
Point de Rosée: 12°C
Humidité: 50%
Barometre: 1020 hPa
Visibilité: Supérieure à  10 km
2017/10/17 11:30 LFSI 171130Z AUTO 15006KT 120V180 CAVOK 23/12 Q1020
LFMH - St-Etienne Boutheon,(42) Loire
Mise à jour: Tue, 17-Oct-2017 01:30 CEST
Claire
Claire
 Wind from S
Vent: S 11 km/h
Température: 25°C
Point de Rosée: 2°C
Humidité: 22%
Barometre: 1021 hPa
Visibilité: Supérieure à  10 km
2017/10/17 11:30 LFMH 171130Z AUTO 18006KT 150V210 CAVOK 25/02 Q1021 TEMPO 16015G25KT
 
LFVP - St-Pierre et Miquelon,(975)Outre-mer
Mise à jour: Tue, 17-Oct-2017 01:00 CEST
Nuageux
Nuageux
 Wind from NE
Vent: NE 19 km/h
Température: 8°C
Température au Vent: 4°C
Point de Rosée: 6°C
Humidité: 87%
Barometre: 1011 hPa
Nuage: Nuageux
Visibilité: 10 km
2017/10/17 11:00 LFVP 171100Z 05010KT 9999 BKN011 08/06 Q1011 NOSIG
LFRZ - St-Nazaire,(44)Loire-Atlantique
Mise à jour: Tue, 17-Oct-2017 01:30 CEST
Nuageux
Nuageux
 Wind from E
Vent: E 11 km/h
Température: 19°C
Point de Rosée: 15°C
Humidité: 78%
Barometre: 1017 hPa
Nuage: Nuageux
Visibilité: 10 km
2017/10/17 11:30 LFRZ 171130Z AUTO 10006KT 050V130 9999 BKN019 19/15 Q1017 NOSIG
LFST - Strasbourg,(67)Bas-Rhin
Mise à jour: Tue, 17-Oct-2017 01:30 CEST
Claire
Claire
 Wind from varies
Vent: varies 4 km/h
Température: 21°C
Point de Rosée: 10°C
Humidité: 50%
Barometre: 1022 hPa
Visibilité: Supérieure à  10 km
2017/10/17 11:30 LFST 171130Z AUTO VRB02KT CAVOK 21/10 Q1022 NOSIG
 
LFBT - Tarbes, Ossun,(65)Hautes-Pyrénées
Mise à jour: Tue, 17-Oct-2017 01:30 CEST
Claire
Claire
 Wind from NNE
Vent: NNE 9 km/h
Température: 25°C
Point de Rosée: 11°C
Humidité: 42%
Barometre: 1018 hPa
Visibilité: Supérieure à  10 km
2017/10/17 11:30 LFBT 171130Z AUTO 03005KT 350V070 CAVOK 25/11 Q1018 NOSIG
LFBO - Toulouse,Blagnac,(31)Haute-Garonne
Mise à jour: Tue, 17-Oct-2017 01:30 CEST
Claire
Claire
 Wind from ESE
Vent: ESE 31 km/h
Température: 23°C
Point de Rosée: 13°C
Humidité: 53%
Barometre: 1019 hPa
Visibilité: Supérieure à  10 km
2017/10/17 11:30 LFBO 171130Z AUTO 12017KT CAVOK 23/13 Q1019 BECMG 14018G28KT
LFOT - Tours,(37)Indre-et-Loire
Mise à jour: Tue, 17-Oct-2017 01:30 CEST
Claire
Claire
 Wind from ESE
Vent: ESE 9 km/h
Température: 21°C
Point de Rosée: 13°C
Humidité: 60%
Barometre: 1019 hPa
Visibilité: Supérieure à  10 km
2017/10/17 11:30 LFOT 171130Z AUTO 12005KT 090V160 CAVOK 21/13 Q1019 NOSIG
 
LFPN - Toussus Le Noble,(78)Yvelines
Mise à jour: Tue, 17-Oct-2017 01:30 CEST
Quelques nuages
Quelques nuages
 Wind from ESE
Vent: ESE 6 km/h
Température: 20°C
Point de Rosée: 15°C
Humidité: 73%
Barometre: 1020 hPa
Nuage: Quelques nuages
Visibilité: 10 km
2017/10/17 11:30 LFPN 171130Z AUTO 11003KT 050V170 9999 FEW042 20/15 Q1020 NOSIG
LFQB - Troyes,Barberey,(10)Aube
Mise à jour: Tue, 17-Oct-2017 01:30 CEST
Claire
Claire
 Wind from SE
Vent: SE 7 km/h
Température: 23°C
Point de Rosée: 15°C
Humidité: 61%
Barometre: 1020 hPa
Visibilité: Supérieure à  10 km
2017/10/17 11:30 LFQB 171130Z AUTO 14004KT 110V170 CAVOK 23/15 Q1020
LFLU - VALENCE Chabeuil,(26)Drôme
Mise à jour: Tue, 17-Oct-2017 01:30 CEST
Claire
Claire
 Wind from SSW
Vent: SSW 26 km/h
Température: 22°C
Point de Rosée: 11°C
Humidité: 50%
Barometre: 1022 hPa
Visibilité: Supérieure à  10 km
2017/10/17 11:30 LFLU 171130Z AUTO 20014KT CAVOK 22/11 Q1022
 
LFRV - Vannes,Meucon,(56)Morbihan
Mise à jour: Tue, 17-Oct-2017 01:30 CEST
Nuageux
Nuageux
 Wind from E
Vent: E 19 km/h
Température: 16°C
Point de Rosée: 13°C
Humidité: 83%
Barometre: 1017 hPa
Nuage: Nuageux
Visibilité: 10 km
2017/10/17 11:30 LFRV 171130Z AUTO 08010KT 9999 BKN016 BKN230 16/13 Q1017
LFPV - Villacoublay,(78)Yvelines
Mise à jour: Tue, 17-Oct-2017 01:30 CEST
Claire
Claire
 Wind from ENE
Vent: ENE 6 km/h
Température: 20°C
Point de Rosée: 14°C
Humidité: 69%
Barometre: 1020 hPa
Visibilité: Supérieure à  10 km
2017/10/17 11:30 LFPV 171130Z AUTO 07003KT 020V100 CAVOK 20/14 Q1020 NOSIG

Metar display script from Saratoga-Weather.org